Terminal Aerodrome Forecast
Issued by NWS Rapid City, SD

Home | Current Version | Previous Version | Graphics & Text | Print | Product List | Glossary On
Versions: 1 2 3 4 5 6 7 8 9 10 11 12 13 14 15 16 17 18
000
FTUS43 KUNR 231720
TAFRAP
TAF
KRAP 231720Z 2318/2418 01020G30KT 1/2SM SN OVC008
     FM240000 36017KT 1 1/2SM -SN OVC010
     FM240600 35014KT 3SM -SN OVC015
     FM240900 35012KT P6SM OVC020=

USA.gov is the U.S. government's official web portal to all federal, state and local government web resources and services.